sensor_id;sensor_type;location;lat;lon;timestamp;P1;durP1;ratioP1;P2;durP2;ratioP2
69594;SDS011;56800;52.142;5.364;2023-03-26T00:00:44;17.55;;;2.95;;
69594;SDS011;56800;52.142;5.364;2023-03-26T00:03:14;21.37;;;4.03;;
69594;SDS011;56800;52.142;5.364;2023-03-26T00:05:42;24.10;;;3.85;;
69594;SDS011;56800;52.142;5.364;2023-03-26T00:08:11;18.65;;;3.40;;
69594;SDS011;56800;52.142;5.364;2023-03-26T00:10:38;20.88;;;3.90;;
69594;SDS011;56800;52.142;5.364;2023-03-26T00:13:06;18.60;;;4.03;;
69594;SDS011;56800;52.142;5.364;2023-03-26T00:15:33;18.87;;;3.67;;
69594;SDS011;56800;52.142;5.364;2023-03-26T00:18:01;32.55;;;4.47;;
69594;SDS011;56800;52.142;5.364;2023-03-26T00:20:29;17.27;;;4.03;;
69594;SDS011;56800;52.142;5.364;2023-03-26T00:22:58;21.20;;;3.97;;
69594;SDS011;56800;52.142;5.364;2023-03-26T00:25:28;17.15;;;3.65;;
69594;SDS011;56800;52.142;5.364;2023-03-26T00:27:58;22.67;;;4.37;;
69594;SDS011;56800;52.142;5.364;2023-03-26T00:30:25;19.13;;;3.17;;
69594;SDS011;56800;52.142;5.364;2023-03-26T00:32:52;24.85;;;4.63;;
69594;SDS011;56800;52.142;5.364;2023-03-26T00:35:19;23.88;;;4.30;;
69594;SDS011;56800;52.142;5.364;2023-03-26T00:37:47;17.55;;;3.75;;
69594;SDS011;56800;52.142;5.364;2023-03-26T00:40:16;23.47;;;3.80;;
69594;SDS011;56800;52.142;5.364;2023-03-26T00:42:43;23.65;;;3.85;;
69594;SDS011;56800;52.142;5.364;2023-03-26T00:45:10;20.35;;;3.72;;
69594;SDS011;56800;52.142;5.364;2023-03-26T00:47:36;19.88;;;4.07;;
69594;SDS011;56800;52.142;5.364;2023-03-26T00:50:05;22.27;;;3.42;;
69594;SDS011;56800;52.142;5.364;2023-03-26T00:52:43;21.17;;;3.97;;
69594;SDS011;56800;52.142;5.364;2023-03-26T00:55:11;18.15;;;3.30;;
69594;SDS011;56800;52.142;5.364;2023-03-26T00:57:38;19.15;;;3.60;;
69594;SDS011;56800;52.142;5.364;2023-03-26T01:00:07;24.50;;;4.10;;
69594;SDS011;56800;52.142;5.364;2023-03-26T01:02:42;24.55;;;3.78;;
69594;SDS011;56800;52.142;5.364;2023-03-26T01:08:02;28.60;;;4.10;;
69594;SDS011;56800;52.142;5.364;2023-03-26T01:10:40;22.20;;;3.90;;
69594;SDS011;56800;52.142;5.364;2023-03-26T01:13:09;24.73;;;3.50;;
69594;SDS011;56800;52.142;5.364;2023-03-26T01:15:35;25.83;;;3.72;;
69594;SDS011;56800;52.142;5.364;2023-03-26T01:18:04;27.47;;;3.70;;
69594;SDS011;56800;52.142;5.364;2023-03-26T01:20:34;28.58;;;4.00;;
69594;SDS011;56800;52.142;5.364;2023-03-26T01:23:12;28.92;;;3.97;;
69594;SDS011;56800;52.142;5.364;2023-03-26T01:25:47;31.50;;;3.97;;
69594;SDS011;56800;52.142;5.364;2023-03-26T01:28:30;23.13;;;3.95;;
69594;SDS011;56800;52.142;5.364;2023-03-26T01:31:12;29.90;;;4.30;;
69594;SDS011;56800;52.142;5.364;2023-03-26T01:34:11;20.98;;;3.90;;
69594;SDS011;56800;52.142;5.364;2023-03-26T01:37:04;36.60;;;4.30;;
69594;SDS011;56800;52.142;5.364;2023-03-26T01:39:46;22.73;;;3.60;;
69594;SDS011;56800;52.142;5.364;2023-03-26T01:42:49;22.65;;;3.85;;
69594;SDS011;56800;52.142;5.364;2023-03-26T01:45:27;28.90;;;4.10;;
69594;SDS011;56800;52.142;5.364;2023-03-26T01:47:57;22.15;;;3.90;;
69594;SDS011;56800;52.142;5.364;2023-03-26T01:50:24;25.10;;;4.03;;
69594;SDS011;56800;52.142;5.364;2023-03-26T01:52:51;21.40;;;3.92;;
69594;SDS011;56800;52.142;5.364;2023-03-26T01:55:18;35.42;;;5.13;;
69594;SDS011;56800;52.142;5.364;2023-03-26T02:00:24;22.25;;;4.43;;
69594;SDS011;56800;52.142;5.364;2023-03-26T02:05:31;22.52;;;3.90;;
69594;SDS011;56800;52.142;5.364;2023-03-26T02:11:01;35.67;;;4.53;;
69594;SDS011;56800;52.142;5.364;2023-03-26T02:13:40;36.83;;;5.07;;
69594;SDS011;56800;52.142;5.364;2023-03-26T02:16:10;30.77;;;5.00;;
69594;SDS011;56800;52.142;5.364;2023-03-26T02:18:39;49.10;;;5.45;;
69594;SDS011;56800;52.142;5.364;2023-03-26T02:21:10;50.00;;;5.63;;
69594;SDS011;56800;52.142;5.364;2023-03-26T02:23:39;37.20;;;4.93;;
69594;SDS011;56800;52.142;5.364;2023-03-26T02:26:13;50.08;;;5.57;;
69594;SDS011;56800;52.142;5.364;2023-03-26T02:28:41;56.78;;;5.97;;
69594;SDS011;56800;52.142;5.364;2023-03-26T02:31:08;55.55;;;5.75;;
69594;SDS011;56800;52.142;5.364;2023-03-26T02:33:36;47.28;;;6.13;;
69594;SDS011;56800;52.142;5.364;2023-03-26T02:36:03;49.23;;;5.77;;
69594;SDS011;56800;52.142;5.364;2023-03-26T02:38:31;67.18;;;6.75;;
69594;SDS011;56800;52.142;5.364;2023-03-26T02:41:03;45.83;;;6.22;;
69594;SDS011;56800;52.142;5.364;2023-03-26T02:43:30;62.15;;;5.75;;
69594;SDS011;56800;52.142;5.364;2023-03-26T02:45:56;55.95;;;6.38;;
69594;SDS011;56800;52.142;5.364;2023-03-26T02:48:24;70.40;;;7.37;;
69594;SDS011;56800;52.142;5.364;2023-03-26T02:50:51;58.25;;;5.75;;
69594;SDS011;56800;52.142;5.364;2023-03-26T02:53:20;55.15;;;5.82;;
69594;SDS011;56800;52.142;5.364;2023-03-26T02:55:49;52.95;;;5.85;;
69594;SDS011;56800;52.142;5.364;2023-03-26T02:58:15;64.95;;;6.45;;
69594;SDS011;56800;52.142;5.364;2023-03-26T03:00:43;50.03;;;5.40;;
69594;SDS011;56800;52.142;5.364;2023-03-26T03:03:11;41.38;;;5.50;;
69594;SDS011;56800;52.142;5.364;2023-03-26T03:05:38;66.72;;;6.78;;
69594;SDS011;56800;52.142;5.364;2023-03-26T03:08:08;60.28;;;6.07;;
69594;SDS011;56800;52.142;5.364;2023-03-26T03:10:35;45.53;;;6.03;;
69594;SDS011;56800;52.142;5.364;2023-03-26T03:13:03;55.07;;;5.53;;
69594;SDS011;56800;52.142;5.364;2023-03-26T03:15:32;51.90;;;6.68;;
69594;SDS011;56800;52.142;5.364;2023-03-26T03:18:00;58.45;;;6.60;;
69594;SDS011;56800;52.142;5.364;2023-03-26T03:20:27;53.30;;;6.63;;
69594;SDS011;56800;52.142;5.364;2023-03-26T03:22:55;60.63;;;7.68;;
69594;SDS011;56800;52.142;5.364;2023-03-26T03:25:22;48.00;;;7.90;;
69594;SDS011;56800;52.142;5.364;2023-03-26T03:27:51;61.75;;;7.38;;
69594;SDS011;56800;52.142;5.364;2023-03-26T03:30:19;53.00;;;7.32;;
69594;SDS011;56800;52.142;5.364;2023-03-26T03:32:46;49.88;;;7.25;;
69594;SDS011;56800;52.142;5.364;2023-03-26T03:35:13;39.13;;;7.30;;
69594;SDS011;56800;52.142;5.364;2023-03-26T03:37:39;64.70;;;8.93;;
69594;SDS011;56800;52.142;5.364;2023-03-26T03:40:06;55.42;;;7.85;;
69594;SDS011;56800;52.142;5.364;2023-03-26T03:42:36;56.40;;;7.22;;
69594;SDS011;56800;52.142;5.364;2023-03-26T03:45:03;52.97;;;8.82;;
69594;SDS011;56800;52.142;5.364;2023-03-26T03:47:31;67.50;;;8.95;;
69594;SDS011;56800;52.142;5.364;2023-03-26T03:49:58;60.87;;;9.07;;
69594;SDS011;56800;52.142;5.364;2023-03-26T03:52:27;51.33;;;9.05;;
69594;SDS011;56800;52.142;5.364;2023-03-26T03:54:54;56.67;;;9.43;;
69594;SDS011;56800;52.142;5.364;2023-03-26T03:57:22;51.55;;;8.52;;
69594;SDS011;56800;52.142;5.364;2023-03-26T03:59:49;61.38;;;8.63;;
69594;SDS011;56800;52.142;5.364;2023-03-26T04:02:16;51.33;;;8.70;;
69594;SDS011;56800;52.142;5.364;2023-03-26T04:04:51;59.13;;;9.05;;
69594;SDS011;56800;52.142;5.364;2023-03-26T04:07:19;58.35;;;9.48;;
69594;SDS011;56800;52.142;5.364;2023-03-26T04:09:46;45.38;;;7.90;;
69594;SDS011;56800;52.142;5.364;2023-03-26T04:12:12;56.75;;;9.10;;
69594;SDS011;56800;52.142;5.364;2023-03-26T04:14:39;47.40;;;8.77;;
69594;SDS011;56800;52.142;5.364;2023-03-26T04:17:06;61.67;;;9.15;;
69594;SDS011;56800;52.142;5.364;2023-03-26T04:19:33;66.38;;;9.75;;
69594;SDS011;56800;52.142;5.364;2023-03-26T04:22:00;48.55;;;8.23;;
69594;SDS011;56800;52.142;5.364;2023-03-26T04:24:28;43.60;;;7.32;;
69594;SDS011;56800;52.142;5.364;2023-03-26T04:26:55;53.80;;;8.10;;
69594;SDS011;56800;52.142;5.364;2023-03-26T04:29:23;48.45;;;9.23;;
69594;SDS011;56800;52.142;5.364;2023-03-26T04:31:55;55.33;;;9.23;;
69594;SDS011;56800;52.142;5.364;2023-03-26T04:34:23;54.10;;;9.75;;
69594;SDS011;56800;52.142;5.364;2023-03-26T04:36:51;62.17;;;9.27;;
69594;SDS011;56800;52.142;5.364;2023-03-26T04:39:21;47.47;;;8.83;;
69594;SDS011;56800;52.142;5.364;2023-03-26T04:41:47;54.97;;;9.52;;
69594;SDS011;56800;52.142;5.364;2023-03-26T04:44:14;46.65;;;9.00;;
69594;SDS011;56800;52.142;5.364;2023-03-26T04:46:42;52.42;;;9.32;;
69594;SDS011;56800;52.142;5.364;2023-03-26T04:49:10;45.65;;;9.52;;
69594;SDS011;56800;52.142;5.364;2023-03-26T04:51:37;48.63;;;9.77;;
69594;SDS011;56800;52.142;5.364;2023-03-26T04:54:07;48.60;;;8.75;;
69594;SDS011;56800;52.142;5.364;2023-03-26T04:59:31;39.58;;;8.48;;
69594;SDS011;56800;52.142;5.364;2023-03-26T05:02:03;54.50;;;10.02;;
69594;SDS011;56800;52.142;5.364;2023-03-26T05:04:30;63.90;;;9.70;;
69594;SDS011;56800;52.142;5.364;2023-03-26T05:07:02;50.33;;;9.88;;
69594;SDS011;56800;52.142;5.364;2023-03-26T05:09:28;59.95;;;10.25;;
69594;SDS011;56800;52.142;5.364;2023-03-26T05:11:55;50.65;;;9.50;;
69594;SDS011;56800;52.142;5.364;2023-03-26T05:14:23;54.97;;;10.07;;
69594;SDS011;56800;52.142;5.364;2023-03-26T05:16:50;50.47;;;9.53;;
69594;SDS011;56800;52.142;5.364;2023-03-26T05:19:18;64.72;;;10.02;;
69594;SDS011;56800;52.142;5.364;2023-03-26T05:21:46;49.85;;;9.63;;
69594;SDS011;56800;52.142;5.364;2023-03-26T05:24:13;44.83;;;9.15;;
69594;SDS011;56800;52.142;5.364;2023-03-26T05:26:40;46.00;;;10.05;;
69594;SDS011;56800;52.142;5.364;2023-03-26T05:29:06;41.67;;;8.60;;
69594;SDS011;56800;52.142;5.364;2023-03-26T05:31:33;41.83;;;9.10;;
69594;SDS011;56800;52.142;5.364;2023-03-26T05:34:00;55.28;;;10.63;;
69594;SDS011;56800;52.142;5.364;2023-03-26T05:36:28;37.38;;;8.68;;
69594;SDS011;56800;52.142;5.364;2023-03-26T05:38:55;39.53;;;9.13;;
69594;SDS011;56800;52.142;5.364;2023-03-26T05:41:22;44.17;;;8.77;;
69594;SDS011;56800;52.142;5.364;2023-03-26T05:43:48;73.35;;;8.77;;
69594;SDS011;56800;52.142;5.364;2023-03-26T05:46:16;52.88;;;9.05;;
69594;SDS011;56800;52.142;5.364;2023-03-26T05:48:45;48.70;;;8.93;;
69594;SDS011;56800;52.142;5.364;2023-03-26T05:51:12;50.13;;;9.38;;
69594;SDS011;56800;52.142;5.364;2023-03-26T05:53:40;32.57;;;8.60;;
69594;SDS011;56800;52.142;5.364;2023-03-26T05:56:07;51.13;;;9.27;;
69594;SDS011;56800;52.142;5.364;2023-03-26T05:58:34;50.83;;;9.27;;
69594;SDS011;56800;52.142;5.364;2023-03-26T06:01:05;38.28;;;9.57;;
69594;SDS011;56800;52.142;5.364;2023-03-26T06:03:34;42.13;;;9.23;;
69594;SDS011;56800;52.142;5.364;2023-03-26T06:06:08;45.63;;;9.60;;
69594;SDS011;56800;52.142;5.364;2023-03-26T06:08:41;60.35;;;10.18;;
69594;SDS011;56800;52.142;5.364;2023-03-26T06:11:11;53.72;;;10.10;;
69594;SDS011;56800;52.142;5.364;2023-03-26T06:13:38;46.47;;;8.93;;
69594;SDS011;56800;52.142;5.364;2023-03-26T06:16:05;46.63;;;10.60;;
69594;SDS011;56800;52.142;5.364;2023-03-26T06:18:32;50.00;;;10.50;;
69594;SDS011;56800;52.142;5.364;2023-03-26T06:20:59;41.15;;;10.32;;
69594;SDS011;56800;52.142;5.364;2023-03-26T06:23:26;50.08;;;10.40;;
69594;SDS011;56800;52.142;5.364;2023-03-26T06:25:53;48.22;;;10.63;;
69594;SDS011;56800;52.142;5.364;2023-03-26T06:28:20;45.47;;;9.52;;
69594;SDS011;56800;52.142;5.364;2023-03-26T06:30:47;46.57;;;11.03;;
69594;SDS011;56800;52.142;5.364;2023-03-26T06:33:14;54.28;;;10.65;;
69594;SDS011;56800;52.142;5.364;2023-03-26T06:35:41;52.78;;;11.30;;
69594;SDS011;56800;52.142;5.364;2023-03-26T06:38:09;42.67;;;9.48;;
69594;SDS011;56800;52.142;5.364;2023-03-26T06:40:36;39.95;;;10.93;;
69594;SDS011;56800;52.142;5.364;2023-03-26T06:43:03;45.53;;;10.87;;
69594;SDS011;56800;52.142;5.364;2023-03-26T06:45:35;43.03;;;9.80;;
69594;SDS011;56800;52.142;5.364;2023-03-26T06:48:03;56.28;;;11.05;;
69594;SDS011;56800;52.142;5.364;2023-03-26T06:50:30;59.53;;;10.90;;
69594;SDS011;56800;52.142;5.364;2023-03-26T06:52:57;52.60;;;10.93;;
69594;SDS011;56800;52.142;5.364;2023-03-26T06:55:25;52.20;;;11.73;;
69594;SDS011;56800;52.142;5.364;2023-03-26T06:57:52;45.85;;;10.30;;
69594;SDS011;56800;52.142;5.364;2023-03-26T07:00:21;47.88;;;11.82;;
69594;SDS011;56800;52.142;5.364;2023-03-26T07:02:47;50.30;;;11.18;;
69594;SDS011;56800;52.142;5.364;2023-03-26T07:05:14;50.90;;;11.32;;
69594;SDS011;56800;52.142;5.364;2023-03-26T07:07:41;51.43;;;11.33;;
69594;SDS011;56800;52.142;5.364;2023-03-26T07:10:12;65.07;;;11.82;;
69594;SDS011;56800;52.142;5.364;2023-03-26T07:12:39;53.42;;;11.00;;
69594;SDS011;56800;52.142;5.364;2023-03-26T07:15:07;53.78;;;11.40;;
69594;SDS011;56800;52.142;5.364;2023-03-26T07:17:35;58.22;;;11.27;;
69594;SDS011;56800;52.142;5.364;2023-03-26T07:20:03;54.27;;;11.13;;
69594;SDS011;56800;52.142;5.364;2023-03-26T07:22:31;56.08;;;11.68;;
69594;SDS011;56800;52.142;5.364;2023-03-26T07:24:59;53.30;;;12.07;;
69594;SDS011;56800;52.142;5.364;2023-03-26T07:35:19;59.25;;;12.60;;
69594;SDS011;56800;52.142;5.364;2023-03-26T07:41:05;47.78;;;12.20;;
69594;SDS011;56800;52.142;5.364;2023-03-26T07:43:47;49.95;;;12.30;;
69594;SDS011;56800;52.142;5.364;2023-03-26T07:46:35;46.93;;;12.67;;
69594;SDS011;56800;52.142;5.364;2023-03-26T07:49:04;50.95;;;12.77;;
69594;SDS011;56800;52.142;5.364;2023-03-26T07:51:31;53.75;;;13.25;;
69594;SDS011;56800;52.142;5.364;2023-03-26T07:53:58;51.10;;;12.75;;
69594;SDS011;56800;52.142;5.364;2023-03-26T07:58:58;51.57;;;13.23;;
69594;SDS011;56800;52.142;5.364;2023-03-26T08:07:32;55.10;;;13.90;;
69594;SDS011;56800;52.142;5.364;2023-03-26T08:16:40;46.97;;;12.65;;
69594;SDS011;56800;52.142;5.364;2023-03-26T08:21:34;44.30;;;12.32;;
69594;SDS011;56800;52.142;5.364;2023-03-26T08:24:12;35.00;;;11.20;;
69594;SDS011;56800;52.142;5.364;2023-03-26T08:26:53;48.97;;;11.93;;
69594;SDS011;56800;52.142;5.364;2023-03-26T08:32:24;44.67;;;11.25;;
69594;SDS011;56800;52.142;5.364;2023-03-26T08:34:52;38.65;;;11.02;;
69594;SDS011;56800;52.142;5.364;2023-03-26T08:37:18;43.22;;;11.88;;
69594;SDS011;56800;52.142;5.364;2023-03-26T08:39:45;37.47;;;11.23;;
69594;SDS011;56800;52.142;5.364;2023-03-26T09:04:19;56.97;;;13.32;;
69594;SDS011;56800;52.142;5.364;2023-03-26T09:07:06;46.87;;;13.50;;
69594;SDS011;56800;52.142;5.364;2023-03-26T09:10:24;43.08;;;12.63;;
69594;SDS011;56800;52.142;5.364;2023-03-26T09:13:14;43.20;;;13.35;;
69594;SDS011;56800;52.142;5.364;2023-03-26T09:16:11;46.58;;;13.00;;
69594;SDS011;56800;52.142;5.364;2023-03-26T09:19:21;40.00;;;12.82;;
69594;SDS011;56800;52.142;5.364;2023-03-26T09:25:17;42.28;;;12.90;;
69594;SDS011;56800;52.142;5.364;2023-03-26T09:30:53;41.25;;;13.05;;
69594;SDS011;56800;52.142;5.364;2023-03-26T09:33:40;38.45;;;12.85;;
69594;SDS011;56800;52.142;5.364;2023-03-26T09:36:39;37.73;;;12.97;;
69594;SDS011;56800;52.142;5.364;2023-03-26T09:42:39;37.10;;;11.75;;
69594;SDS011;56800;52.142;5.364;2023-03-26T09:48:05;33.25;;;11.75;;
69594;SDS011;56800;52.142;5.364;2023-03-26T10:10:42;24.00;;;8.35;;
69594;SDS011;56800;52.142;5.364;2023-03-26T10:13:24;22.67;;;8.88;;
69594;SDS011;56800;52.142;5.364;2023-03-26T10:19:18;25.17;;;8.20;;
69594;SDS011;56800;52.142;5.364;2023-03-26T10:33:08;25.83;;;7.60;;
69594;SDS011;56800;52.142;5.364;2023-03-26T10:36:02;22.25;;;5.47;;
69594;SDS011;56800;52.142;5.364;2023-03-26T10:44:52;19.52;;;4.90;;
69594;SDS011;56800;52.142;5.364;2023-03-26T10:47:47;18.30;;;4.77;;
69594;SDS011;56800;52.142;5.364;2023-03-26T10:55:59;21.70;;;4.75;;
69594;SDS011;56800;52.142;5.364;2023-03-26T10:58:33;15.48;;;4.30;;
69594;SDS011;56800;52.142;5.364;2023-03-26T11:01:21;15.43;;;4.10;;
69594;SDS011;56800;52.142;5.364;2023-03-26T11:04:00;16.25;;;4.43;;
69594;SDS011;56800;52.142;5.364;2023-03-26T11:09:58;20.10;;;4.15;;
69594;SDS011;56800;52.142;5.364;2023-03-26T11:15:26;25.07;;;4.50;;
69594;SDS011;56800;52.142;5.364;2023-03-26T11:18:04;16.70;;;3.70;;
69594;SDS011;56800;52.142;5.364;2023-03-26T11:20:50;18.02;;;3.97;;
69594;SDS011;56800;52.142;5.364;2023-03-26T11:26:49;23.92;;;3.80;;
69594;SDS011;56800;52.142;5.364;2023-03-26T11:29:25;27.00;;;4.27;;
69594;SDS011;56800;52.142;5.364;2023-03-26T11:32:15;24.98;;;4.60;;
69594;SDS011;56800;52.142;5.364;2023-03-26T11:34:55;19.58;;;4.38;;
69594;SDS011;56800;52.142;5.364;2023-03-26T11:37:28;20.95;;;4.00;;
69594;SDS011;56800;52.142;5.364;2023-03-26T11:40:00;18.95;;;3.42;;
69594;SDS011;56800;52.142;5.364;2023-03-26T11:42:32;17.07;;;4.23;;
69594;SDS011;56800;52.142;5.364;2023-03-26T11:45:02;21.27;;;4.53;;
69594;SDS011;56800;52.142;5.364;2023-03-26T11:47:44;19.58;;;4.03;;
69594;SDS011;56800;52.142;5.364;2023-03-26T11:50:17;26.05;;;4.50;;
69594;SDS011;56800;52.142;5.364;2023-03-26T11:52:48;19.08;;;4.50;;
69594;SDS011;56800;52.142;5.364;2023-03-26T11:55:15;15.77;;;4.10;;
69594;SDS011;56800;52.142;5.364;2023-03-26T11:57:48;27.52;;;4.30;;
69594;SDS011;56800;52.142;5.364;2023-03-26T12:00:20;23.45;;;3.97;;
69594;SDS011;56800;52.142;5.364;2023-03-26T12:02:56;22.50;;;4.03;;
69594;SDS011;56800;52.142;5.364;2023-03-26T12:05:25;19.75;;;3.70;;
69594;SDS011;56800;52.142;5.364;2023-03-26T12:07:57;13.87;;;3.63;;
69594;SDS011;56800;52.142;5.364;2023-03-26T12:13:01;23.75;;;3.60;;
69594;SDS011;56800;52.142;5.364;2023-03-26T12:15:41;20.00;;;3.17;;
69594;SDS011;56800;52.142;5.364;2023-03-26T12:18:17;23.38;;;3.03;;
69594;SDS011;56800;52.142;5.364;2023-03-26T12:20:52;15.23;;;3.23;;
69594;SDS011;56800;52.142;5.364;2023-03-26T12:23:42;16.23;;;3.03;;
69594;SDS011;56800;52.142;5.364;2023-03-26T12:26:20;16.77;;;3.00;;
69594;SDS011;56800;52.142;5.364;2023-03-26T12:29:09;17.88;;;2.70;;
69594;SDS011;56800;52.142;5.364;2023-03-26T12:31:45;19.17;;;2.70;;
69594;SDS011;56800;52.142;5.364;2023-03-26T12:34:15;26.50;;;4.50;;
69594;SDS011;56800;52.142;5.364;2023-03-26T12:36:51;19.27;;;2.83;;
69594;SDS011;56800;52.142;5.364;2023-03-26T12:42:25;19.33;;;2.90;;
69594;SDS011;56800;52.142;5.364;2023-03-26T12:45:16;16.48;;;2.90;;
69594;SDS011;56800;52.142;5.364;2023-03-26T12:47:53;16.43;;;2.97;;
69594;SDS011;56800;52.142;5.364;2023-03-26T12:51:18;22.23;;;3.08;;
69594;SDS011;56800;52.142;5.364;2023-03-26T12:59:05;23.38;;;2.78;;
69594;SDS011;56800;52.142;5.364;2023-03-26T13:01:58;17.23;;;2.20;;
69594;SDS011;56800;52.142;5.364;2023-03-26T13:07:02;18.17;;;3.05;;
69594;SDS011;56800;52.142;5.364;2023-03-26T13:13:22;15.18;;;3.00;;
69594;SDS011;56800;52.142;5.364;2023-03-26T13:15:58;15.87;;;2.63;;
69594;SDS011;56800;52.142;5.364;2023-03-26T13:27:07;12.93;;;2.45;;
69594;SDS011;56800;52.142;5.364;2023-03-26T13:32:43;15.20;;;2.22;;
69594;SDS011;56800;52.142;5.364;2023-03-26T13:38:10;17.80;;;2.58;;
69594;SDS011;56800;52.142;5.364;2023-03-26T13:43:18;12.83;;;2.37;;
69594;SDS011;56800;52.142;5.364;2023-03-26T13:48:41;15.60;;;2.40;;
69594;SDS011;56800;52.142;5.364;2023-03-26T13:51:17;16.33;;;2.53;;
69594;SDS011;56800;52.142;5.364;2023-03-26T13:54:09;10.30;;;2.20;;
69594;SDS011;56800;52.142;5.364;2023-03-26T13:56:49;10.23;;;1.90;;
69594;SDS011;56800;52.142;5.364;2023-03-26T13:59:29;17.27;;;2.28;;
69594;SDS011;56800;52.142;5.364;2023-03-26T14:02:04;13.80;;;2.22;;
69594;SDS011;56800;52.142;5.364;2023-03-26T14:04:40;12.43;;;2.17;;
69594;SDS011;56800;52.142;5.364;2023-03-26T14:07:47;12.60;;;2.75;;
69594;SDS011;56800;52.142;5.364;2023-03-26T14:10:16;13.03;;;1.90;;
69594;SDS011;56800;52.142;5.364;2023-03-26T14:15:25;9.43;;;2.08;;
69594;SDS011;56800;52.142;5.364;2023-03-26T14:37:53;15.00;;;2.60;;
69594;SDS011;56800;52.142;5.364;2023-03-26T14:52:19;13.07;;;2.10;;
69594;SDS011;56800;52.142;5.364;2023-03-26T14:54:56;11.82;;;2.33;;
69594;SDS011;56800;52.142;5.364;2023-03-26T15:06:49;9.83;;;1.87;;
69594;SDS011;56800;52.142;5.364;2023-03-26T15:12:36;12.00;;;2.35;;
69594;SDS011;56800;52.142;5.364;2023-03-26T15:27:17;10.55;;;1.80;;
69594;SDS011;56800;52.142;5.364;2023-03-26T15:48:01;9.32;;;1.95;;
69594;SDS011;56800;52.142;5.364;2023-03-26T15:59:13;11.45;;;2.45;;
69594;SDS011;56800;52.142;5.364;2023-03-26T16:10:24;11.82;;;2.47;;
69594;SDS011;56800;52.142;5.364;2023-03-26T16:15:54;13.48;;;2.22;;
69594;SDS011;56800;52.142;5.364;2023-03-26T16:18:36;7.67;;;2.63;;
69594;SDS011;56800;52.142;5.364;2023-03-26T16:30:41;11.80;;;1.60;;
69594;SDS011;56800;52.142;5.364;2023-03-26T16:32:43;15.47;;;2.37;;
69594;SDS011;56800;52.142;5.364;2023-03-26T16:35:24;11.70;;;1.92;;
69594;SDS011;56800;52.142;5.364;2023-03-26T16:38:04;9.75;;;2.00;;
69594;SDS011;56800;52.142;5.364;2023-03-26T16:40:53;12.27;;;2.10;;
69594;SDS011;56800;52.142;5.364;2023-03-26T16:43:37;8.68;;;2.00;;
69594;SDS011;56800;52.142;5.364;2023-03-26T16:49:09;13.48;;;2.03;;
69594;SDS011;56800;52.142;5.364;2023-03-26T16:51:54;13.55;;;2.10;;
69594;SDS011;56800;52.142;5.364;2023-03-26T16:54:40;9.15;;;2.05;;
69594;SDS011;56800;52.142;5.364;2023-03-26T16:57:25;12.90;;;2.10;;
69594;SDS011;56800;52.142;5.364;2023-03-26T17:00:25;11.87;;;2.10;;
69594;SDS011;56800;52.142;5.364;2023-03-26T17:03:21;10.10;;;2.15;;
69594;SDS011;56800;52.142;5.364;2023-03-26T17:11:17;10.57;;;2.28;;
69594;SDS011;56800;52.142;5.364;2023-03-26T17:19:36;12.68;;;2.22;;
69594;SDS011;56800;52.142;5.364;2023-03-26T17:27:48;8.47;;;1.97;;
69594;SDS011;56800;52.142;5.364;2023-03-26T17:33:33;12.52;;;2.20;;
69594;SDS011;56800;52.142;5.364;2023-03-26T17:41:10;10.37;;;1.77;;
69594;SDS011;56800;52.142;5.364;2023-03-26T17:48:55;9.80;;;1.80;;
69594;SDS011;56800;52.142;5.364;2023-03-26T17:54:06;12.67;;;1.70;;
69594;SDS011;56800;52.142;5.364;2023-03-26T17:56:39;8.45;;;1.67;;
69594;SDS011;56800;52.142;5.364;2023-03-26T17:59:07;10.10;;;1.70;;
69594;SDS011;56800;52.142;5.364;2023-03-26T18:01:49;10.70;;;1.55;;
69594;SDS011;56800;52.142;5.364;2023-03-26T18:04:25;12.30;;;1.90;;
69594;SDS011;56800;52.142;5.364;2023-03-26T18:07:06;12.20;;;2.00;;
69594;SDS011;56800;52.142;5.364;2023-03-26T18:12:40;11.52;;;1.92;;
69594;SDS011;56800;52.142;5.364;2023-03-26T18:15:26;10.43;;;1.55;;
69594;SDS011;56800;52.142;5.364;2023-03-26T18:18:10;11.38;;;2.00;;
69594;SDS011;56800;52.142;5.364;2023-03-26T18:20:46;11.23;;;1.83;;
69594;SDS011;56800;52.142;5.364;2023-03-26T18:26:14;6.38;;;1.80;;
69594;SDS011;56800;52.142;5.364;2023-03-26T18:28:43;13.38;;;2.03;;
69594;SDS011;56800;52.142;5.364;2023-03-26T18:31:18;11.23;;;2.00;;
69594;SDS011;56800;52.142;5.364;2023-03-26T18:33:53;9.37;;;1.60;;
69594;SDS011;56800;52.142;5.364;2023-03-26T18:36:25;9.43;;;2.08;;
69594;SDS011;56800;52.142;5.364;2023-03-26T18:38:58;12.30;;;1.67;;
69594;SDS011;56800;52.142;5.364;2023-03-26T18:41:26;9.68;;;1.77;;
69594;SDS011;56800;52.142;5.364;2023-03-26T18:44:00;13.60;;;1.92;;
69594;SDS011;56800;52.142;5.364;2023-03-26T18:46:30;12.07;;;2.00;;
69594;SDS011;56800;52.142;5.364;2023-03-26T18:49:01;9.68;;;1.88;;
69594;SDS011;56800;52.142;5.364;2023-03-26T18:51:28;8.73;;;1.63;;
69594;SDS011;56800;52.142;5.364;2023-03-26T18:53:57;10.90;;;2.10;;
69594;SDS011;56800;52.142;5.364;2023-03-26T18:56:34;11.60;;;2.00;;
69594;SDS011;56800;52.142;5.364;2023-03-26T18:59:06;10.17;;;2.00;;
69594;SDS011;56800;52.142;5.364;2023-03-26T19:02:09;6.70;;;1.60;;
69594;SDS011;56800;52.142;5.364;2023-03-26T19:04:39;9.65;;;1.85;;
69594;SDS011;56800;52.142;5.364;2023-03-26T19:07:12;7.55;;;1.75;;
69594;SDS011;56800;52.142;5.364;2023-03-26T19:09:49;10.82;;;1.80;;
69594;SDS011;56800;52.142;5.364;2023-03-26T19:12:19;10.63;;;1.97;;
69594;SDS011;56800;52.142;5.364;2023-03-26T19:15:14;8.10;;;1.60;;
69594;SDS011;56800;52.142;5.364;2023-03-26T19:17:50;11.40;;;1.80;;
69594;SDS011;56800;52.142;5.364;2023-03-26T19:20:22;9.88;;;1.48;;
69594;SDS011;56800;52.142;5.364;2023-03-26T19:22:54;13.73;;;1.75;;
69594;SDS011;56800;52.142;5.364;2023-03-26T19:25:23;8.40;;;1.63;;
69594;SDS011;56800;52.142;5.364;2023-03-26T19:27:53;8.63;;;1.40;;
69594;SDS011;56800;52.142;5.364;2023-03-26T19:30:28;7.90;;;1.40;;
69594;SDS011;56800;52.142;5.364;2023-03-26T19:33:17;10.63;;;1.52;;
69594;SDS011;56800;52.142;5.364;2023-03-26T19:35:49;8.98;;;1.35;;
69594;SDS011;56800;52.142;5.364;2023-03-26T19:40:50;7.00;;;1.48;;
69594;SDS011;56800;52.142;5.364;2023-03-26T19:43:18;9.75;;;1.48;;
69594;SDS011;56800;52.142;5.364;2023-03-26T19:45:45;9.85;;;1.63;;
69594;SDS011;56800;52.142;5.364;2023-03-26T19:48:25;9.00;;;1.70;;
69594;SDS011;56800;52.142;5.364;2023-03-26T19:51:13;14.97;;;1.50;;
69594;SDS011;56800;52.142;5.364;2023-03-26T19:54:12;8.90;;;1.33;;
69594;SDS011;56800;52.142;5.364;2023-03-26T19:56:41;8.30;;;1.65;;
69594;SDS011;56800;52.142;5.364;2023-03-26T19:59:08;5.65;;;1.40;;
69594;SDS011;56800;52.142;5.364;2023-03-26T20:01:35;10.55;;;1.60;;
69594;SDS011;56800;52.142;5.364;2023-03-26T20:04:03;11.43;;;1.97;;
69594;SDS011;56800;52.142;5.364;2023-03-26T20:06:31;7.72;;;1.60;;
69594;SDS011;56800;52.142;5.364;2023-03-26T20:09:09;8.40;;;1.33;;
69594;SDS011;56800;52.142;5.364;2023-03-26T20:11:37;8.50;;;1.42;;
69594;SDS011;56800;52.142;5.364;2023-03-26T20:16:39;10.73;;;1.30;;
69594;SDS011;56800;52.142;5.364;2023-03-26T20:19:10;10.82;;;1.60;;
69594;SDS011;56800;52.142;5.364;2023-03-26T20:21:38;6.18;;;1.10;;
69594;SDS011;56800;52.142;5.364;2023-03-26T20:24:09;7.75;;;1.42;;
69594;SDS011;56800;52.142;5.364;2023-03-26T20:26:38;8.82;;;1.60;;
69594;SDS011;56800;52.142;5.364;2023-03-26T20:29:04;11.57;;;1.80;;
69594;SDS011;56800;52.142;5.364;2023-03-26T20:31:31;13.43;;;1.70;;
69594;SDS011;56800;52.142;5.364;2023-03-26T20:33:58;8.68;;;1.40;;